createdAt,value
2022-12-08T00:01:53.682Z,0.29
2022-12-08T00:04:25.342Z,0.33
2022-12-08T00:07:15.942Z,0.34
2022-12-08T00:09:47.602Z,0.36
2022-12-08T00:12:19.226Z,0.34
2022-12-08T00:14:51.444Z,0.35
2022-12-08T00:17:23.155Z,0.34
2022-12-08T00:19:54.849Z,0.31
2022-12-08T00:22:26.473Z,0.30
2022-12-08T00:24:58.319Z,0.26
2022-12-08T00:27:30.019Z,0.27
2022-12-08T00:30:01.701Z,0.29
2022-12-08T00:32:33.311Z,0.30
2022-12-08T00:35:05.799Z,0.28
2022-12-08T00:37:37.633Z,0.22
2022-12-08T00:40:12.625Z,0.18
2022-12-08T00:42:44.317Z,0.13
2022-12-08T00:45:16.091Z,0.03
2022-12-08T00:47:47.797Z,-0.02
2022-12-08T00:50:23.378Z,-0.01
2022-12-08T00:52:55.099Z,-0.00
2022-12-08T00:55:26.899Z,-0.01
2022-12-08T00:57:58.576Z,0.02
2022-12-08T01:00:30.317Z,0.06
2022-12-08T01:03:03.359Z,0.05
2022-12-08T01:05:35.174Z,0.07
2022-12-08T01:08:09.920Z,0.08
2022-12-08T01:10:42.211Z,0.07
2022-12-08T01:13:13.877Z,0.07
2022-12-08T01:15:45.766Z,0.07
2022-12-08T01:18:17.648Z,0.07
2022-12-08T01:20:49.584Z,0.05
2022-12-08T01:23:21.171Z,0.03
2022-12-08T01:25:52.787Z,0.00
2022-12-08T01:28:24.534Z,-0.06
2022-12-08T01:30:56.200Z,-0.07
2022-12-08T01:33:28.581Z,-0.09
2022-12-08T01:36:05.749Z,-0.11
2022-12-08T01:38:37.377Z,-0.14
2022-12-08T01:41:09.150Z,-0.19
2022-12-08T01:43:58.136Z,-0.20
2022-12-08T01:46:31.360Z,-0.24
2022-12-08T01:49:08.790Z,-0.27
2022-12-08T01:51:44.082Z,-0.30
2022-12-08T01:54:16.755Z,-0.34
2022-12-08T01:56:55.277Z,-0.38
2022-12-08T01:59:28.046Z,-0.39
2022-12-08T02:01:59.899Z,-0.37
2022-12-08T02:04:31.533Z,-0.36
2022-12-08T02:07:07.981Z,-0.36
2022-12-08T02:09:41.184Z,-0.41
2022-12-08T02:12:13.266Z,-0.43
2022-12-08T02:14:44.867Z,-0.44
2022-12-08T02:17:31.682Z,-0.41
2022-12-08T02:20:24.873Z,-0.39
2022-12-08T02:23:06.262Z,-0.38
2022-12-08T02:25:51.694Z,-0.39
2022-12-08T02:28:45.658Z,-0.41
2022-12-08T02:31:33.818Z,-0.44
2022-12-08T02:34:18.858Z,-0.45
2022-12-08T02:37:01.084Z,-0.44
2022-12-08T02:39:43.817Z,-0.43
2022-12-08T02:42:25.130Z,-0.43
2022-12-08T02:45:03.720Z,-0.38
2022-12-08T02:47:36.460Z,-0.35
2022-12-08T02:50:12.859Z,-0.32
2022-12-08T02:52:49.009Z,-0.29
2022-12-08T02:55:27.613Z,-0.26
2022-12-08T02:58:25.333Z,-0.23
2022-12-08T03:01:13.939Z,-0.18
2022-12-08T03:03:52.237Z,-0.13
2022-12-08T03:06:32.046Z,-0.10
2022-12-08T03:09:09.608Z,-0.08
2022-12-08T03:11:45.849Z,-0.06
2022-12-08T03:14:19.275Z,-0.02
2022-12-08T03:16:56.550Z,0.03
2022-12-08T03:19:31.136Z,0.06
2022-12-08T03:22:04.779Z,0.08
2022-12-08T03:24:40.822Z,0.11
2022-12-08T03:27:14.776Z,0.12
2022-12-08T03:29:47.453Z,0.11
2022-12-08T03:32:29.629Z,0.14
2022-12-08T03:35:05.538Z,0.19
2022-12-08T03:37:39.260Z,0.22
2022-12-08T03:40:15.361Z,0.26
2022-12-08T03:42:47.372Z,0.22
2022-12-08T03:45:19.035Z,0.17
2022-12-08T03:47:50.777Z,0.19
2022-12-08T03:50:25.378Z,0.25
2022-12-08T03:52:57.096Z,0.31
2022-12-08T03:55:29.663Z,0.36
2022-12-08T03:58:01.423Z,0.40
2022-12-08T04:00:33.325Z,0.44
2022-12-08T04:03:07.165Z,0.50
2022-12-08T04:05:38.908Z,0.56
2022-12-08T04:08:10.679Z,0.58
2022-12-08T04:10:42.355Z,0.59
2022-12-08T04:13:14.105Z,0.59
2022-12-08T04:15:49.840Z,0.59
2022-12-08T04:18:21.968Z,0.59
2022-12-08T04:20:54.012Z,0.58
2022-12-08T04:23:26.095Z,0.59
2022-12-08T04:25:57.755Z,0.62
2022-12-08T04:28:29.812Z,0.64
2022-12-08T04:31:02.075Z,0.66
2022-12-08T04:33:35.289Z,0.68
2022-12-08T04:36:09.097Z,0.70
2022-12-08T04:38:40.808Z,0.72
2022-12-08T04:41:12.537Z,0.74
2022-12-08T04:43:45.002Z,0.75
2022-12-08T04:46:16.783Z,0.77
2022-12-08T04:48:48.873Z,0.77
2022-12-08T04:51:21.642Z,0.76
2022-12-08T04:53:53.359Z,0.76
2022-12-08T04:56:25.347Z,0.80
2022-12-08T04:58:57.316Z,0.85
2022-12-08T05:01:29.034Z,0.88
2022-12-08T05:04:00.929Z,0.90
2022-12-08T05:06:32.652Z,0.91
2022-12-08T05:09:04.591Z,0.96
2022-12-08T05:11:36.179Z,0.99
2022-12-08T05:14:09.794Z,0.99
2022-12-08T05:16:41.431Z,1.02
2022-12-08T05:19:13.306Z,1.05
2022-12-08T05:21:45.844Z,1.07
2022-12-08T05:24:17.439Z,1.08
2022-12-08T05:26:50.610Z,1.12
2022-12-08T05:29:22.369Z,1.16
2022-12-08T05:31:54.390Z,1.19
2022-12-08T05:34:26.376Z,1.18
2022-12-08T05:36:58.006Z,1.20
2022-12-08T05:39:29.785Z,1.23
2022-12-08T05:42:01.466Z,1.26
2022-12-08T05:44:33.231Z,1.30
2022-12-08T05:47:05.146Z,1.31
2022-12-08T05:49:36.922Z,1.33
2022-12-08T05:52:08.951Z,1.37
2022-12-08T05:54:40.880Z,1.41
2022-12-08T05:57:12.870Z,1.46
2022-12-08T05:59:44.881Z,1.50
2022-12-08T06:02:16.743Z,1.53
2022-12-08T06:04:48.576Z,1.55
2022-12-08T06:07:20.507Z,1.54
2022-12-08T06:09:52.230Z,1.57
2022-12-08T06:12:24.373Z,1.60
2022-12-08T06:14:56.114Z,1.62
2022-12-08T06:17:27.726Z,1.68
2022-12-08T06:19:59.491Z,1.72
2022-12-08T06:22:31.445Z,1.74
2022-12-08T06:25:07.216Z,1.74
2022-12-08T06:27:41.496Z,1.72
2022-12-08T06:30:26.444Z,1.72
2022-12-08T06:32:58.138Z,1.74
2022-12-08T06:35:29.834Z,1.78
2022-12-08T06:38:01.468Z,1.77
2022-12-08T06:40:33.072Z,1.79
2022-12-08T06:43:04.822Z,1.79
2022-12-08T06:45:36.756Z,1.82
2022-12-08T06:48:09.089Z,1.85
2022-12-08T06:50:40.743Z,1.89
2022-12-08T06:53:14.036Z,1.89
2022-12-08T06:56:03.576Z,1.91
2022-12-08T06:58:35.685Z,1.92
2022-12-08T07:01:12.484Z,1.92
2022-12-08T07:03:44.701Z,1.90
2022-12-08T07:06:21.564Z,1.92
2022-12-08T07:08:53.278Z,1.89
2022-12-08T07:11:25.037Z,1.89
2022-12-08T07:13:58.228Z,1.88
2022-12-08T07:16:30.452Z,1.86
2022-12-08T07:19:02.197Z,1.89
2022-12-08T07:21:34.273Z,1.93
2022-12-08T07:24:06.556Z,1.94
2022-12-08T07:26:41.144Z,1.94
2022-12-08T07:29:13.678Z,1.96
2022-12-08T07:31:45.346Z,1.99
2022-12-08T07:34:17.043Z,2.00
2022-12-08T07:36:48.883Z,1.99
2022-12-08T07:39:20.498Z,2.02
2022-12-08T07:41:52.165Z,2.05
2022-12-08T07:44:23.837Z,2.07
2022-12-08T07:46:55.952Z,2.08
2022-12-08T07:49:27.848Z,2.07
2022-12-08T07:51:59.831Z,2.09
2022-12-08T07:54:31.726Z,2.10
2022-12-08T07:57:03.890Z,2.13
2022-12-08T07:59:35.541Z,2.17
2022-12-08T08:02:23.448Z,2.16
2022-12-08T08:04:55.807Z,2.15
2022-12-08T08:07:27.581Z,2.15
2022-12-08T08:09:59.245Z,2.19
2022-12-08T08:12:32.336Z,2.24
2022-12-08T08:15:05.797Z,2.28
2022-12-08T08:17:38.421Z,2.28
2022-12-08T08:20:13.486Z,2.32
2022-12-08T08:22:46.253Z,2.39
2022-12-08T08:25:19.147Z,2.47
2022-12-08T08:27:51.077Z,2.60
2022-12-08T08:30:29.475Z,2.71
2022-12-08T08:33:01.355Z,2.76
2022-12-08T08:35:32.975Z,2.85
2022-12-08T08:38:04.840Z,2.96
2022-12-08T08:40:36.649Z,3.02
2022-12-08T08:43:09.074Z,3.01
2022-12-08T08:45:40.747Z,3.00
2022-12-08T08:48:12.477Z,3.05
2022-12-08T08:50:44.408Z,3.11
2022-12-08T08:53:16.240Z,3.09
2022-12-08T08:55:50.314Z,3.07
2022-12-08T08:58:22.088Z,3.05
2022-12-08T09:00:53.756Z,3.00
2022-12-08T09:03:25.464Z,2.99
2022-12-08T09:05:57.869Z,2.95
2022-12-08T09:08:29.851Z,2.96
2022-12-08T09:11:01.851Z,2.95
2022-12-08T09:13:33.603Z,3.00
2022-12-08T09:16:07.477Z,3.05
2022-12-08T09:18:39.191Z,3.07
2022-12-08T09:21:16.560Z,3.09
2022-12-08T09:23:48.376Z,3.15
2022-12-08T09:26:22.520Z,3.23
2022-12-08T09:28:55.977Z,3.31
2022-12-08T09:31:28.122Z,3.31
2022-12-08T09:34:00.459Z,3.35
2022-12-08T09:36:32.382Z,3.43
2022-12-08T09:39:04.333Z,3.52
2022-12-08T09:41:44.838Z,3.55
2022-12-08T09:44:39.252Z,3.54
2022-12-08T09:47:19.627Z,3.50
2022-12-08T09:49:59.552Z,3.48
2022-12-08T09:52:34.680Z,3.48
2022-12-08T09:55:16.664Z,3.48
2022-12-08T09:57:58.626Z,3.50
2022-12-08T10:00:30.471Z,3.56
2022-12-08T10:03:02.135Z,3.58
2022-12-08T10:05:38.818Z,3.59
2022-12-08T10:08:17.783Z,3.62
2022-12-08T10:10:57.131Z,3.75
2022-12-08T10:14:10.024Z,3.85
2022-12-08T10:16:53.546Z,3.94
2022-12-08T10:19:28.076Z,4.01
2022-12-08T10:22:00.448Z,4.07
2022-12-08T10:24:42.455Z,4.09
2022-12-08T10:27:14.781Z,4.15
2022-12-08T10:29:46.368Z,4.23
2022-12-08T10:32:21.434Z,4.34
2022-12-08T10:35:04.457Z,4.46
2022-12-08T10:37:36.250Z,4.57
2022-12-08T10:40:14.050Z,4.62
2022-12-08T10:42:48.867Z,4.67
2022-12-08T10:45:29.273Z,4.67
2022-12-08T10:48:04.494Z,4.53
2022-12-08T10:50:42.541Z,4.46
2022-12-08T10:53:21.844Z,4.43
2022-12-08T10:55:55.085Z,4.36
2022-12-08T10:58:36.453Z,4.34
2022-12-08T11:01:14.119Z,4.34
2022-12-08T11:03:50.924Z,4.35
2022-12-08T11:06:26.951Z,4.34
2022-12-08T11:09:02.053Z,4.36
2022-12-08T11:11:47.069Z,4.31
2022-12-08T11:14:23.801Z,4.30
2022-12-08T11:16:59.013Z,4.27
2022-12-08T11:19:30.722Z,4.23
2022-12-08T11:22:02.339Z,4.26
2022-12-08T11:24:38.666Z,4.31
2022-12-08T11:27:11.238Z,4.37
2022-12-08T11:29:43.729Z,4.42
2022-12-08T11:32:16.080Z,4.47
2022-12-08T11:34:52.044Z,4.51
2022-12-08T11:37:34.769Z,4.51
2022-12-08T11:40:21.832Z,4.53
2022-12-08T11:43:02.089Z,4.59
2022-12-08T11:45:36.472Z,4.63
2022-12-08T11:48:17.020Z,4.67
2022-12-08T11:50:54.186Z,4.72
2022-12-08T11:53:31.458Z,4.75
2022-12-08T11:56:08.056Z,4.81
2022-12-08T11:58:43.331Z,4.87
2022-12-08T12:01:21.368Z,4.92
2022-12-08T12:04:00.717Z,4.97
2022-12-08T12:07:09.825Z,5.01
2022-12-08T12:09:58.713Z,5.04
2022-12-08T12:12:44.717Z,5.03
2022-12-08T12:15:57.273Z,5.09
2022-12-08T12:18:34.455Z,5.12
2022-12-08T12:21:33.925Z,5.17
2022-12-08T12:24:25.441Z,5.21
2022-12-08T12:27:01.776Z,5.22
2022-12-08T12:29:36.857Z,5.22
2022-12-08T12:32:11.534Z,5.21
2022-12-08T12:34:51.078Z,5.18
2022-12-08T12:37:26.281Z,5.21
2022-12-08T12:40:02.171Z,5.23
2022-12-08T12:42:43.037Z,5.26
2022-12-08T12:45:27.202Z,5.24
2022-12-08T12:48:20.849Z,5.29
2022-12-08T12:50:55.251Z,5.36
2022-12-08T12:53:52.194Z,5.40
2022-12-08T12:56:50.310Z,5.38
2022-12-08T12:59:51.662Z,5.39
2022-12-08T13:02:28.712Z,5.41
2022-12-08T13:05:11.271Z,5.46
2022-12-08T13:07:51.062Z,5.50
2022-12-08T13:10:28.215Z,5.51
2022-12-08T13:13:17.457Z,5.48
2022-12-08T13:15:54.965Z,5.44
2022-12-08T13:18:35.247Z,5.46
2022-12-08T13:21:15.174Z,5.46
2022-12-08T13:23:49.103Z,5.47
2022-12-08T13:26:23.679Z,5.49
2022-12-08T13:29:24.950Z,5.52
2022-12-08T13:31:57.275Z,5.53
2022-12-08T13:34:36.901Z,5.47
2022-12-08T13:37:26.366Z,5.41
2022-12-08T13:40:03.772Z,5.33
2022-12-08T13:42:47.057Z,5.26
2022-12-08T13:48:42.301Z,5.07
2022-12-08T13:55:06.813Z,4.99
2022-12-08T13:57:19.709Z,4.91
2022-12-08T13:59:51.831Z,4.88
2022-12-08T14:02:32.974Z,4.86
2022-12-08T14:05:34.589Z,4.79
2022-12-08T14:07:58.753Z,4.76
2022-12-08T14:10:33.400Z,4.74
2022-12-08T14:13:15.726Z,4.72
2022-12-08T14:15:47.424Z,4.70
2022-12-08T14:18:30.806Z,4.69
2022-12-08T14:21:21.803Z,4.67
2022-12-08T14:23:53.651Z,4.61
2022-12-08T14:26:25.483Z,4.58
2022-12-08T14:28:57.555Z,4.56
2022-12-08T14:31:30.152Z,4.55
2022-12-08T14:34:02.010Z,4.54
2022-12-08T14:36:34.145Z,4.53
2022-12-08T14:39:06.192Z,4.52
2022-12-08T14:41:39.334Z,4.52
2022-12-08T14:44:25.214Z,4.48
2022-12-08T14:47:11.584Z,4.42
2022-12-08T14:49:44.587Z,4.38
2022-12-08T14:52:16.785Z,4.38
2022-12-08T14:54:51.156Z,4.36
2022-12-08T14:57:23.447Z,4.36
2022-12-08T14:59:55.180Z,4.35
2022-12-08T15:02:32.871Z,4.34
2022-12-08T15:05:11.397Z,4.36
2022-12-08T15:07:50.630Z,4.37
2022-12-08T15:10:26.845Z,4.36
2022-12-08T15:13:20.675Z,4.36
2022-12-08T15:15:53.962Z,4.37
2022-12-08T15:18:36.422Z,4.37
2022-12-08T15:21:12.671Z,4.39
2022-12-08T15:23:47.204Z,4.38
2022-12-08T15:26:23.305Z,4.35
2022-12-08T15:28:56.007Z,4.35
2022-12-08T15:31:27.762Z,4.33
2022-12-08T15:33:59.635Z,4.35
2022-12-08T15:36:31.641Z,4.37
2022-12-08T15:39:03.482Z,4.39
2022-12-08T15:41:35.188Z,4.39
2022-12-08T15:44:06.856Z,4.39
2022-12-08T15:46:38.505Z,4.39
2022-12-08T15:49:17.243Z,4.38
2022-12-08T15:51:49.114Z,4.40
2022-12-08T15:54:21.072Z,4.39
2022-12-08T15:57:18.578Z,4.40
2022-12-08T15:59:47.852Z,4.40
2022-12-08T16:02:22.816Z,4.42
2022-12-08T16:07:47.794Z,4.45
2022-12-08T16:10:26.486Z,4.43
2022-12-08T16:16:17.896Z,4.42
2022-12-08T16:18:51.088Z,4.41
2022-12-08T16:21:53.345Z,4.39
2022-12-08T16:24:14.923Z,4.34
2022-12-08T16:27:58.796Z,4.33
2022-12-08T16:29:38.769Z,4.32
2022-12-08T16:32:10.450Z,4.28
2022-12-08T16:34:42.375Z,4.27
2022-12-08T16:37:17.058Z,4.26
2022-12-08T16:39:50.271Z,4.24
2022-12-08T16:42:44.495Z,4.23
2022-12-08T16:45:17.858Z,4.22
2022-12-08T16:47:51.057Z,4.22
2022-12-08T16:50:26.947Z,4.21
2022-12-08T16:53:00.907Z,4.23
2022-12-08T16:55:33.020Z,4.22
2022-12-08T16:58:04.848Z,4.20
2022-12-08T17:00:45.061Z,4.18
2022-12-08T17:03:18.547Z,4.15
2022-12-08T17:05:50.232Z,4.10
2022-12-08T17:08:22.288Z,4.08
2022-12-08T17:11:07.474Z,4.09
2022-12-08T17:13:41.383Z,4.11
2022-12-08T17:16:16.901Z,4.08
2022-12-08T17:18:49.162Z,4.10
2022-12-08T17:21:21.284Z,4.12
2022-12-08T17:23:52.945Z,4.18
2022-12-08T17:26:24.611Z,4.23
2022-12-08T17:29:00.871Z,4.27
2022-12-08T17:31:33.643Z,4.31
2022-12-08T17:34:09.650Z,4.32
2022-12-08T17:36:41.374Z,4.34
2022-12-08T17:39:18.264Z,4.35
2022-12-08T17:41:50.767Z,4.35
2022-12-08T17:44:22.635Z,4.34
2022-12-08T17:46:54.371Z,4.31
2022-12-08T17:49:29.640Z,4.30
2022-12-08T17:52:03.114Z,4.25
2022-12-08T17:54:36.477Z,4.23
2022-12-08T17:57:08.241Z,4.25
2022-12-08T17:59:39.942Z,4.26
2022-12-08T18:02:13.447Z,4.22
2022-12-08T18:04:45.100Z,4.16
2022-12-08T18:07:16.730Z,4.08
2022-12-08T18:09:48.531Z,4.01
2022-12-08T18:12:23.563Z,3.97
2022-12-08T18:14:55.738Z,3.90
2022-12-08T18:17:27.399Z,3.85
2022-12-08T18:19:59.002Z,3.84
2022-12-08T18:22:30.713Z,3.84
2022-12-08T18:25:02.512Z,3.81
2022-12-08T18:27:38.567Z,3.77
2022-12-08T18:30:19.284Z,3.72
2022-12-08T18:32:55.846Z,3.66
2022-12-08T18:35:29.046Z,3.60
2022-12-08T18:38:01.249Z,3.53
2022-12-08T18:40:33.201Z,3.46
2022-12-08T18:43:05.070Z,3.43
2022-12-08T18:45:39.708Z,3.40
2022-12-08T18:48:11.435Z,3.36
2022-12-08T18:50:44.873Z,3.31
2022-12-08T18:53:16.605Z,3.27
2022-12-08T18:55:50.996Z,3.28
2022-12-08T18:58:22.618Z,3.31
2022-12-08T19:00:54.335Z,3.31
2022-12-08T19:03:26.009Z,3.29
2022-12-08T19:06:06.274Z,3.27
2022-12-08T19:08:37.942Z,3.28
2022-12-08T19:11:20.170Z,3.29
2022-12-08T19:13:52.051Z,3.26
2022-12-08T19:16:24.219Z,3.23
2022-12-08T19:18:55.891Z,3.23
2022-12-08T19:21:28.604Z,3.20
2022-12-08T19:24:00.490Z,3.14
2022-12-08T19:26:32.101Z,3.09
2022-12-08T19:29:03.835Z,3.09
2022-12-08T19:31:35.641Z,3.11
2022-12-08T19:34:09.299Z,3.13
2022-12-08T19:36:42.756Z,3.14
2022-12-08T19:39:36.053Z,3.13
2022-12-08T19:42:30.692Z,3.09
2022-12-08T19:45:05.790Z,3.11
2022-12-08T19:47:37.488Z,3.11
2022-12-08T19:50:29.368Z,3.08
2022-12-08T19:53:01.208Z,3.03
2022-12-08T19:55:33.103Z,3.02
2022-12-08T19:58:05.479Z,3.01
2022-12-08T20:00:39.024Z,3.01
2022-12-08T20:03:11.880Z,3.04
2022-12-08T20:05:44.449Z,3.09
2022-12-08T20:08:16.484Z,3.04
2022-12-08T20:10:48.559Z,3.05
2022-12-08T20:13:34.072Z,3.07
2022-12-08T20:16:05.987Z,3.10
2022-12-08T20:18:39.006Z,3.11
2022-12-08T20:21:11.989Z,3.11
2022-12-08T20:23:45.531Z,3.11
2022-12-08T20:26:18.526Z,3.11
2022-12-08T20:28:50.459Z,3.12
2022-12-08T20:31:24.573Z,3.12
2022-12-08T20:33:56.659Z,3.12
2022-12-08T20:36:28.443Z,3.07
2022-12-08T20:39:00.053Z,3.09
2022-12-08T20:41:36.139Z,3.08
2022-12-08T20:44:10.968Z,3.07
2022-12-08T20:46:47.757Z,3.06
2022-12-08T20:49:21.188Z,3.09
2022-12-08T20:51:53.172Z,3.06
2022-12-08T20:54:24.914Z,3.04
2022-12-08T20:56:56.684Z,3.05
2022-12-08T20:59:28.664Z,3.05
2022-12-08T21:02:01.267Z,3.07
2022-12-08T21:04:33.001Z,3.04
2022-12-08T21:07:05.182Z,3.03
2022-12-08T21:09:36.993Z,3.07
2022-12-08T21:12:09.414Z,3.04
2022-12-08T21:14:42.674Z,3.02
2022-12-08T21:17:14.593Z,3.01
2022-12-08T21:19:46.256Z,3.01
2022-12-08T21:22:18.107Z,3.04
2022-12-08T21:24:50.423Z,3.04
2022-12-08T21:27:22.231Z,3.05
2022-12-08T21:29:53.878Z,3.03
2022-12-08T21:32:30.090Z,3.05
2022-12-08T21:35:02.654Z,3.05
2022-12-08T21:37:34.478Z,3.07
2022-12-08T21:40:18.301Z,3.10
2022-12-08T21:42:50.868Z,3.11
2022-12-08T21:45:23.597Z,3.13
2022-12-08T21:47:55.414Z,3.14
2022-12-08T21:50:27.608Z,3.15
2022-12-08T21:52:59.519Z,3.15
2022-12-08T21:55:31.468Z,3.11
2022-12-08T21:58:03.345Z,3.08
2022-12-08T22:00:35.210Z,3.06
2022-12-08T22:03:07.827Z,3.00
2022-12-08T22:05:39.589Z,2.98
2022-12-08T22:08:11.661Z,2.97
2022-12-08T22:10:47.387Z,2.97
2022-12-08T22:13:19.239Z,2.95
2022-12-08T22:15:59.998Z,2.96
2022-12-08T22:18:32.382Z,3.00
2022-12-08T22:21:08.383Z,2.99
2022-12-08T22:23:40.685Z,3.01
2022-12-08T22:26:13.194Z,3.02
2022-12-08T22:28:46.080Z,3.03
2022-12-08T22:31:21.023Z,3.02
2022-12-08T22:33:53.254Z,3.04
2022-12-08T22:36:26.927Z,3.06
2022-12-08T22:38:58.920Z,3.05
2022-12-08T22:41:30.608Z,3.06
2022-12-08T22:44:02.334Z,3.06
2022-12-08T22:46:34.397Z,3.04
2022-12-08T22:49:06.403Z,3.03
2022-12-08T22:51:39.474Z,3.03
2022-12-08T22:54:12.841Z,3.03
2022-12-08T22:56:44.528Z,3.04
2022-12-08T22:59:16.199Z,3.08
2022-12-08T23:01:47.914Z,3.13
2022-12-08T23:04:19.608Z,3.16
2022-12-08T23:06:51.364Z,3.18
2022-12-08T23:09:23.996Z,3.20
2022-12-08T23:11:55.931Z,3.18
2022-12-08T23:14:27.701Z,3.16
2022-12-08T23:16:59.694Z,3.14
2022-12-08T23:19:31.434Z,3.11
2022-12-08T23:22:03.211Z,3.09
2022-12-08T23:24:35.321Z,3.06
2022-12-08T23:27:07.030Z,3.02
2022-12-08T23:29:39.816Z,3.01
2022-12-08T23:32:11.721Z,2.98
2022-12-08T23:34:43.552Z,2.93
2022-12-08T23:37:15.406Z,2.91
2022-12-08T23:39:47.456Z,2.90
2022-12-08T23:42:19.145Z,2.89
2022-12-08T23:44:50.905Z,2.88
2022-12-08T23:47:22.693Z,2.87
2022-12-08T23:49:54.435Z,2.84
2022-12-08T23:52:26.111Z,2.80
2022-12-08T23:54:57.767Z,2.75
2022-12-08T23:57:29.357Z,2.74
